sensor_id;sensor_type;location;lat;lon;timestamp;temperature;humidity
816;DHT22;25928;51.062;13.752;2022-12-24T00:01:15;12.00;99.90
816;DHT22;25928;51.062;13.752;2022-12-24T00:03:41;11.90;99.90
816;DHT22;25928;51.062;13.752;2022-12-24T00:06:14;11.90;99.90
816;DHT22;25928;51.062;13.752;2022-12-24T00:08:40;11.90;99.90
816;DHT22;25928;51.062;13.752;2022-12-24T00:11:06;11.90;83.70
816;DHT22;25928;51.062;13.752;2022-12-24T00:13:32;11.80;59.40
816;DHT22;25928;51.062;13.752;2022-12-24T00:15:58;11.80;49.50
816;DHT22;25928;51.062;13.752;2022-12-24T00:18:24;11.90;36.60
816;DHT22;25928;51.062;13.752;2022-12-24T00:20:51;11.90;12.10
816;DHT22;25928;51.062;13.752;2022-12-24T00:23:17;11.90;1.00
816;DHT22;25928;51.062;13.752;2022-12-24T00:25:44;11.90;1.00
816;DHT22;25928;51.062;13.752;2022-12-24T00:28:10;12.00;3.00
816;DHT22;25928;51.062;13.752;2022-12-24T00:30:37;12.00;1.00
816;DHT22;25928;51.062;13.752;2022-12-24T00:33:03;12.00;1.00
816;DHT22;25928;51.062;13.752;2022-12-24T00:35:29;12.00;1.00
816;DHT22;25928;51.062;13.752;2022-12-24T00:37:55;12.00;1.00
816;DHT22;25928;51.062;13.752;2022-12-24T00:40:20;11.90;1.00
816;DHT22;25928;51.062;13.752;2022-12-24T00:42:46;12.10;1.00
816;DHT22;25928;51.062;13.752;2022-12-24T00:45:12;12.10;1.00
816;DHT22;25928;51.062;13.752;2022-12-24T00:47:38;12.10;1.00
816;DHT22;25928;51.062;13.752;2022-12-24T00:50:04;12.00;1.00
816;DHT22;25928;51.062;13.752;2022-12-24T00:52:30;11.90;4.80
816;DHT22;25928;51.062;13.752;2022-12-24T00:54:55;11.90;8.70
816;DHT22;25928;51.062;13.752;2022-12-24T00:57:21;11.90;5.70
816;DHT22;25928;51.062;13.752;2022-12-24T00:59:47;12.10;5.60
816;DHT22;25928;51.062;13.752;2022-12-24T01:02:12;12.00;4.00
816;DHT22;25928;51.062;13.752;2022-12-24T01:04:38;12.00;1.00
816;DHT22;25928;51.062;13.752;2022-12-24T01:07:22;12.00;1.00
816;DHT22;25928;51.062;13.752;2022-12-24T01:09:48;12.00;1.00
816;DHT22;25928;51.062;13.752;2022-12-24T01:12:14;12.10;1.00
816;DHT22;25928;51.062;13.752;2022-12-24T01:14:39;12.10;1.00
816;DHT22;25928;51.062;13.752;2022-12-24T01:17:05;12.10;1.00
816;DHT22;25928;51.062;13.752;2022-12-24T01:19:30;12.10;1.00
816;DHT22;25928;51.062;13.752;2022-12-24T01:21:57;12.20;1.00
816;DHT22;25928;51.062;13.752;2022-12-24T01:24:23;12.30;1.00
816;DHT22;25928;51.062;13.752;2022-12-24T01:26:48;12.30;1.00
816;DHT22;25928;51.062;13.752;2022-12-24T01:29:14;12.30;1.00
816;DHT22;25928;51.062;13.752;2022-12-24T01:31:40;12.30;1.00
816;DHT22;25928;51.062;13.752;2022-12-24T01:34:06;12.30;1.00
816;DHT22;25928;51.062;13.752;2022-12-24T01:36:32;12.30;1.00
816;DHT22;25928;51.062;13.752;2022-12-24T01:38:58;12.40;1.00
816;DHT22;25928;51.062;13.752;2022-12-24T01:41:24;12.20;1.00
816;DHT22;25928;51.062;13.752;2022-12-24T01:44:28;12.20;1.00
816;DHT22;25928;51.062;13.752;2022-12-24T01:47:24;12.20;1.00
816;DHT22;25928;51.062;13.752;2022-12-24T01:49:55;12.20;1.00
816;DHT22;25928;51.062;13.752;2022-12-24T01:52:28;12.20;1.00
816;DHT22;25928;51.062;13.752;2022-12-24T01:54:58;12.20;1.00
816;DHT22;25928;51.062;13.752;2022-12-24T01:57:26;12.20;1.00
816;DHT22;25928;51.062;13.752;2022-12-24T01:59:54;12.20;1.00
816;DHT22;25928;51.062;13.752;2022-12-24T02:02:23;12.30;1.00
816;DHT22;25928;51.062;13.752;2022-12-24T02:05:09;12.20;1.00
816;DHT22;25928;51.062;13.752;2022-12-24T02:07:35;12.20;1.00
816;DHT22;25928;51.062;13.752;2022-12-24T02:10:02;12.20;1.00
816;DHT22;25928;51.062;13.752;2022-12-24T02:12:29;12.20;1.00
816;DHT22;25928;51.062;13.752;2022-12-24T02:14:57;12.20;1.00
816;DHT22;25928;51.062;13.752;2022-12-24T02:20:37;12.30;1.00
816;DHT22;25928;51.062;13.752;2022-12-24T02:23:45;12.30;1.00
816;DHT22;25928;51.062;13.752;2022-12-24T02:32:10;12.30;1.00
816;DHT22;25928;51.062;13.752;2022-12-24T02:34:55;12.30;1.00
816;DHT22;25928;51.062;13.752;2022-12-24T02:37:30;12.30;1.00
816;DHT22;25928;51.062;13.752;2022-12-24T02:39:59;12.30;1.00
816;DHT22;25928;51.062;13.752;2022-12-24T02:42:31;12.40;1.00
816;DHT22;25928;51.062;13.752;2022-12-24T02:45:04;12.40;1.00
816;DHT22;25928;51.062;13.752;2022-12-24T02:47:31;12.40;1.00
816;DHT22;25928;51.062;13.752;2022-12-24T02:50:00;12.40;1.00
816;DHT22;25928;51.062;13.752;2022-12-24T02:52:33;12.30;1.00
816;DHT22;25928;51.062;13.752;2022-12-24T02:55:03;12.30;1.00
816;DHT22;25928;51.062;13.752;2022-12-24T03:00:17;12.10;1.00
816;DHT22;25928;51.062;13.752;2022-12-24T03:05:55;12.10;1.00
816;DHT22;25928;51.062;13.752;2022-12-24T03:11:11;12.10;1.00
816;DHT22;25928;51.062;13.752;2022-12-24T03:13:38;12.20;1.00
816;DHT22;25928;51.062;13.752;2022-12-24T03:16:09;12.20;1.00
816;DHT22;25928;51.062;13.752;2022-12-24T03:18:37;12.20;1.00
816;DHT22;25928;51.062;13.752;2022-12-24T03:21:09;12.30;1.00
816;DHT22;25928;51.062;13.752;2022-12-24T03:23:36;12.30;1.00
816;DHT22;25928;51.062;13.752;2022-12-24T03:26:06;12.10;1.00
816;DHT22;25928;51.062;13.752;2022-12-24T03:28:33;12.00;1.00
816;DHT22;25928;51.062;13.752;2022-12-24T03:31:03;11.70;1.00
816;DHT22;25928;51.062;13.752;2022-12-24T03:33:29;11.90;1.00
816;DHT22;25928;51.062;13.752;2022-12-24T03:35:55;11.90;1.00
816;DHT22;25928;51.062;13.752;2022-12-24T03:38:20;12.00;1.00
816;DHT22;25928;51.062;13.752;2022-12-24T03:40:46;12.00;1.00
816;DHT22;25928;51.062;13.752;2022-12-24T03:43:12;12.00;1.00
816;DHT22;25928;51.062;13.752;2022-12-24T03:45:37;12.00;1.00
816;DHT22;25928;51.062;13.752;2022-12-24T03:48:03;11.90;1.00
816;DHT22;25928;51.062;13.752;2022-12-24T03:50:29;12.00;1.00
816;DHT22;25928;51.062;13.752;2022-12-24T03:52:55;12.00;1.00
816;DHT22;25928;51.062;13.752;2022-12-24T03:55:21;12.10;1.00
816;DHT22;25928;51.062;13.752;2022-12-24T03:57:47;12.10;1.00
816;DHT22;25928;51.062;13.752;2022-12-24T04:00:13;12.10;1.00
816;DHT22;25928;51.062;13.752;2022-12-24T04:02:39;12.10;1.00
816;DHT22;25928;51.062;13.752;2022-12-24T04:05:05;12.20;1.00
816;DHT22;25928;51.062;13.752;2022-12-24T04:07:32;12.20;1.00
816;DHT22;25928;51.062;13.752;2022-12-24T04:09:58;12.10;1.00
816;DHT22;25928;51.062;13.752;2022-12-24T04:12:23;12.10;1.00
816;DHT22;25928;51.062;13.752;2022-12-24T04:14:49;12.20;1.00
816;DHT22;25928;51.062;13.752;2022-12-24T04:17:15;12.10;1.00
816;DHT22;25928;51.062;13.752;2022-12-24T04:19:41;12.20;1.00
816;DHT22;25928;51.062;13.752;2022-12-24T04:22:06;12.10;1.00
816;DHT22;25928;51.062;13.752;2022-12-24T04:24:32;12.20;1.00
816;DHT22;25928;51.062;13.752;2022-12-24T04:26:57;12.20;1.00
816;DHT22;25928;51.062;13.752;2022-12-24T04:29:23;12.20;1.00
816;DHT22;25928;51.062;13.752;2022-12-24T04:31:48;12.20;1.00
816;DHT22;25928;51.062;13.752;2022-12-24T04:34:14;12.30;1.00
816;DHT22;25928;51.062;13.752;2022-12-24T04:36:40;12.40;1.00
816;DHT22;25928;51.062;13.752;2022-12-24T04:39:05;12.40;1.00
816;DHT22;25928;51.062;13.752;2022-12-24T04:41:31;12.40;1.00
816;DHT22;25928;51.062;13.752;2022-12-24T04:43:57;12.40;1.00
816;DHT22;25928;51.062;13.752;2022-12-24T04:46:26;12.40;1.00
816;DHT22;25928;51.062;13.752;2022-12-24T04:48:52;12.40;1.00
816;DHT22;25928;51.062;13.752;2022-12-24T04:51:19;12.40;1.00
816;DHT22;25928;51.062;13.752;2022-12-24T04:53:46;12.40;1.00
816;DHT22;25928;51.062;13.752;2022-12-24T04:56:16;12.40;1.00
816;DHT22;25928;51.062;13.752;2022-12-24T04:58:42;12.40;1.00
816;DHT22;25928;51.062;13.752;2022-12-24T05:01:11;12.40;1.00
816;DHT22;25928;51.062;13.752;2022-12-24T05:03:37;12.30;1.00
816;DHT22;25928;51.062;13.752;2022-12-24T05:06:08;12.20;1.00
816;DHT22;25928;51.062;13.752;2022-12-24T05:08:34;12.30;1.00
816;DHT22;25928;51.062;13.752;2022-12-24T05:11:01;12.30;1.00
816;DHT22;25928;51.062;13.752;2022-12-24T05:13:27;12.30;1.00
816;DHT22;25928;51.062;13.752;2022-12-24T05:15:54;12.20;1.00
816;DHT22;25928;51.062;13.752;2022-12-24T05:18:20;12.10;1.00
816;DHT22;25928;51.062;13.752;2022-12-24T05:20:46;12.00;1.00
816;DHT22;25928;51.062;13.752;2022-12-24T05:23:23;12.00;1.00
816;DHT22;25928;51.062;13.752;2022-12-24T05:26:22;12.00;1.00
816;DHT22;25928;51.062;13.752;2022-12-24T05:28:55;12.00;1.00
816;DHT22;25928;51.062;13.752;2022-12-24T05:31:24;12.00;1.00
816;DHT22;25928;51.062;13.752;2022-12-24T05:33:50;12.00;1.00
816;DHT22;25928;51.062;13.752;2022-12-24T05:36:16;12.00;1.00
816;DHT22;25928;51.062;13.752;2022-12-24T05:38:42;11.90;1.00
816;DHT22;25928;51.062;13.752;2022-12-24T05:41:08;11.90;1.00
816;DHT22;25928;51.062;13.752;2022-12-24T05:43:38;11.90;1.00
816;DHT22;25928;51.062;13.752;2022-12-24T05:46:07;11.90;1.00
816;DHT22;25928;51.062;13.752;2022-12-24T05:48:33;11.80;1.00
816;DHT22;25928;51.062;13.752;2022-12-24T05:51:02;11.70;1.00
816;DHT22;25928;51.062;13.752;2022-12-24T05:53:29;11.80;1.00
816;DHT22;25928;51.062;13.752;2022-12-24T05:55:54;11.80;1.00
816;DHT22;25928;51.062;13.752;2022-12-24T05:58:26;11.80;1.00
816;DHT22;25928;51.062;13.752;2022-12-24T06:00:52;11.80;1.00
816;DHT22;25928;51.062;13.752;2022-12-24T06:03:18;11.80;1.00
816;DHT22;25928;51.062;13.752;2022-12-24T06:05:44;11.90;1.00
816;DHT22;25928;51.062;13.752;2022-12-24T06:08:09;11.80;1.00
816;DHT22;25928;51.062;13.752;2022-12-24T06:10:35;11.80;1.00
816;DHT22;25928;51.062;13.752;2022-12-24T06:13:01;11.90;1.00
816;DHT22;25928;51.062;13.752;2022-12-24T06:15:26;11.90;1.00
816;DHT22;25928;51.062;13.752;2022-12-24T06:17:52;11.80;1.00
816;DHT22;25928;51.062;13.752;2022-12-24T06:20:17;11.80;1.00
816;DHT22;25928;51.062;13.752;2022-12-24T06:22:43;11.70;1.00
816;DHT22;25928;51.062;13.752;2022-12-24T06:25:09;11.70;1.00
816;DHT22;25928;51.062;13.752;2022-12-24T06:27:34;11.70;1.00
816;DHT22;25928;51.062;13.752;2022-12-24T06:30:00;11.70;1.00
816;DHT22;25928;51.062;13.752;2022-12-24T06:32:25;11.70;1.00
816;DHT22;25928;51.062;13.752;2022-12-24T06:34:51;11.70;1.00
816;DHT22;25928;51.062;13.752;2022-12-24T06:37:16;11.70;1.00
816;DHT22;25928;51.062;13.752;2022-12-24T06:39:45;11.60;1.00
816;DHT22;25928;51.062;13.752;2022-12-24T06:42:12;11.60;1.00
816;DHT22;25928;51.062;13.752;2022-12-24T06:44:38;11.70;1.00
816;DHT22;25928;51.062;13.752;2022-12-24T06:47:04;11.60;1.00
816;DHT22;25928;51.062;13.752;2022-12-24T06:49:29;11.70;1.00
816;DHT22;25928;51.062;13.752;2022-12-24T06:51:55;11.70;1.00
816;DHT22;25928;51.062;13.752;2022-12-24T06:54:21;11.70;1.00
816;DHT22;25928;51.062;13.752;2022-12-24T06:56:46;11.80;1.00
816;DHT22;25928;51.062;13.752;2022-12-24T06:59:12;11.70;1.00
816;DHT22;25928;51.062;13.752;2022-12-24T07:01:37;11.80;1.00
816;DHT22;25928;51.062;13.752;2022-12-24T07:04:03;11.90;1.00
816;DHT22;25928;51.062;13.752;2022-12-24T07:06:29;12.00;1.00
816;DHT22;25928;51.062;13.752;2022-12-24T07:08:55;12.00;1.00
816;DHT22;25928;51.062;13.752;2022-12-24T07:11:22;11.90;1.00
816;DHT22;25928;51.062;13.752;2022-12-24T07:13:48;12.00;1.00
816;DHT22;25928;51.062;13.752;2022-12-24T07:16:14;12.00;1.00
816;DHT22;25928;51.062;13.752;2022-12-24T07:18:39;12.00;1.00
816;DHT22;25928;51.062;13.752;2022-12-24T07:21:05;12.00;1.00
816;DHT22;25928;51.062;13.752;2022-12-24T07:23:32;12.00;1.00
816;DHT22;25928;51.062;13.752;2022-12-24T07:26:02;12.00;1.00
816;DHT22;25928;51.062;13.752;2022-12-24T07:28:28;12.00;1.00
816;DHT22;25928;51.062;13.752;2022-12-24T07:30:55;12.10;1.00
816;DHT22;25928;51.062;13.752;2022-12-24T07:33:21;12.10;1.00
816;DHT22;25928;51.062;13.752;2022-12-24T07:35:47;11.60;1.00
816;DHT22;25928;51.062;13.752;2022-12-24T07:38:12;11.90;1.00
816;DHT22;25928;51.062;13.752;2022-12-24T07:40:38;11.90;1.00
816;DHT22;25928;51.062;13.752;2022-12-24T07:43:03;11.80;1.00
816;DHT22;25928;51.062;13.752;2022-12-24T07:45:29;11.90;1.00
816;DHT22;25928;51.062;13.752;2022-12-24T07:47:55;12.00;1.00
816;DHT22;25928;51.062;13.752;2022-12-24T07:50:20;12.00;1.00
816;DHT22;25928;51.062;13.752;2022-12-24T07:52:46;12.00;1.00
816;DHT22;25928;51.062;13.752;2022-12-24T07:55:11;11.80;1.00
816;DHT22;25928;51.062;13.752;2022-12-24T07:57:37;11.80;1.00
816;DHT22;25928;51.062;13.752;2022-12-24T08:00:03;11.90;1.00
816;DHT22;25928;51.062;13.752;2022-12-24T08:02:29;11.90;1.00
816;DHT22;25928;51.062;13.752;2022-12-24T08:04:55;11.80;1.00
816;DHT22;25928;51.062;13.752;2022-12-24T08:07:21;11.70;1.00
816;DHT22;25928;51.062;13.752;2022-12-24T08:09:46;11.80;1.00
816;DHT22;25928;51.062;13.752;2022-12-24T08:12:12;11.90;1.00
816;DHT22;25928;51.062;13.752;2022-12-24T08:14:37;11.90;1.00
816;DHT22;25928;51.062;13.752;2022-12-24T08:17:03;11.90;1.00
816;DHT22;25928;51.062;13.752;2022-12-24T08:19:29;11.80;1.00
816;DHT22;25928;51.062;13.752;2022-12-24T08:21:54;11.70;1.00
816;DHT22;25928;51.062;13.752;2022-12-24T08:24:20;11.70;1.00
816;DHT22;25928;51.062;13.752;2022-12-24T08:26:45;11.70;1.00
816;DHT22;25928;51.062;13.752;2022-12-24T08:29:11;11.60;1.00
816;DHT22;25928;51.062;13.752;2022-12-24T08:31:37;11.70;1.00
816;DHT22;25928;51.062;13.752;2022-12-24T08:34:03;11.80;1.00
816;DHT22;25928;51.062;13.752;2022-12-24T08:36:29;11.80;1.00
816;DHT22;25928;51.062;13.752;2022-12-24T08:38:55;11.70;1.00
816;DHT22;25928;51.062;13.752;2022-12-24T08:41:20;11.70;1.00
816;DHT22;25928;51.062;13.752;2022-12-24T08:43:46;11.70;1.00
816;DHT22;25928;51.062;13.752;2022-12-24T08:46:11;11.80;1.00
816;DHT22;25928;51.062;13.752;2022-12-24T08:48:37;11.70;1.00
816;DHT22;25928;51.062;13.752;2022-12-24T08:51:10;11.70;1.00
816;DHT22;25928;51.062;13.752;2022-12-24T08:53:36;11.70;1.00
816;DHT22;25928;51.062;13.752;2022-12-24T08:56:03;11.80;1.00
816;DHT22;25928;51.062;13.752;2022-12-24T08:58:29;11.90;1.00
816;DHT22;25928;51.062;13.752;2022-12-24T09:00:55;11.80;1.00
816;DHT22;25928;51.062;13.752;2022-12-24T09:03:21;12.00;1.00
816;DHT22;25928;51.062;13.752;2022-12-24T09:05:47;12.00;1.00
816;DHT22;25928;51.062;13.752;2022-12-24T09:08:12;12.00;1.00
816;DHT22;25928;51.062;13.752;2022-12-24T09:10:38;12.00;1.00
816;DHT22;25928;51.062;13.752;2022-12-24T09:13:04;12.10;1.00
816;DHT22;25928;51.062;13.752;2022-12-24T09:15:29;12.10;1.00
816;DHT22;25928;51.062;13.752;2022-12-24T09:17:55;12.20;1.00
816;DHT22;25928;51.062;13.752;2022-12-24T09:20:21;12.20;1.00
816;DHT22;25928;51.062;13.752;2022-12-24T09:22:47;12.20;1.00
816;DHT22;25928;51.062;13.752;2022-12-24T09:25:12;12.30;1.00
816;DHT22;25928;51.062;13.752;2022-12-24T09:27:38;12.20;1.00
816;DHT22;25928;51.062;13.752;2022-12-24T09:30:05;12.20;1.00
816;DHT22;25928;51.062;13.752;2022-12-24T09:32:31;12.30;1.00
816;DHT22;25928;51.062;13.752;2022-12-24T09:34:56;12.40;1.00
816;DHT22;25928;51.062;13.752;2022-12-24T09:37:22;12.40;1.00
816;DHT22;25928;51.062;13.752;2022-12-24T09:39:47;12.40;1.00
816;DHT22;25928;51.062;13.752;2022-12-24T09:44:50;12.30;1.00
816;DHT22;25928;51.062;13.752;2022-12-24T09:47:26;12.40;1.00
816;DHT22;25928;51.062;13.752;2022-12-24T09:49:56;12.50;1.00
816;DHT22;25928;51.062;13.752;2022-12-24T09:52:29;12.60;1.00
816;DHT22;25928;51.062;13.752;2022-12-24T09:55:19;12.70;1.00
816;DHT22;25928;51.062;13.752;2022-12-24T09:57:46;12.80;1.00
816;DHT22;25928;51.062;13.752;2022-12-24T10:00:29;12.90;1.00
816;DHT22;25928;51.062;13.752;2022-12-24T10:02:56;12.70;1.00
816;DHT22;25928;51.062;13.752;2022-12-24T10:14:17;12.70;1.00
816;DHT22;25928;51.062;13.752;2022-12-24T10:19:51;12.60;1.00
816;DHT22;25928;51.062;13.752;2022-12-24T10:22:45;12.60;1.00
816;DHT22;25928;51.062;13.752;2022-12-24T10:27:48;12.40;1.00
816;DHT22;25928;51.062;13.752;2022-12-24T10:30:17;12.40;1.00
816;DHT22;25928;51.062;13.752;2022-12-24T10:32:46;12.50;1.00
816;DHT22;25928;51.062;13.752;2022-12-24T10:37:46;12.80;1.00
816;DHT22;25928;51.062;13.752;2022-12-24T10:40:42;12.80;1.00
816;DHT22;25928;51.062;13.752;2022-12-24T10:45:43;12.80;1.00
816;DHT22;25928;51.062;13.752;2022-12-24T10:48:20;12.80;1.00
816;DHT22;25928;51.062;13.752;2022-12-24T10:51:10;12.80;1.00
816;DHT22;25928;51.062;13.752;2022-12-24T10:53:48;12.80;1.00
816;DHT22;25928;51.062;13.752;2022-12-24T10:56:18;12.90;1.00
816;DHT22;25928;51.062;13.752;2022-12-24T10:58:45;13.00;1.00
816;DHT22;25928;51.062;13.752;2022-12-24T11:01:12;13.00;1.00
816;DHT22;25928;51.062;13.752;2022-12-24T11:03:38;13.10;1.00
816;DHT22;25928;51.062;13.752;2022-12-24T11:06:12;13.30;1.00
816;DHT22;25928;51.062;13.752;2022-12-24T11:08:43;13.30;1.00
816;DHT22;25928;51.062;13.752;2022-12-24T11:11:17;13.20;1.00
816;DHT22;25928;51.062;13.752;2022-12-24T11:18:56;13.10;1.00
816;DHT22;25928;51.062;13.752;2022-12-24T11:21:27;12.90;1.00
816;DHT22;25928;51.062;13.752;2022-12-24T11:24:24;12.90;1.00
816;DHT22;25928;51.062;13.752;2022-12-24T11:26:50;12.90;1.00
816;DHT22;25928;51.062;13.752;2022-12-24T11:29:25;12.90;1.00
816;DHT22;25928;51.062;13.752;2022-12-24T11:31:55;12.90;1.00
816;DHT22;25928;51.062;13.752;2022-12-24T11:34:34;12.90;1.00
816;DHT22;25928;51.062;13.752;2022-12-24T11:37:09;12.80;1.00
816;DHT22;25928;51.062;13.752;2022-12-24T11:39:40;12.80;1.00
816;DHT22;25928;51.062;13.752;2022-12-24T11:42:07;12.80;1.00
816;DHT22;25928;51.062;13.752;2022-12-24T11:44:48;12.80;1.00
816;DHT22;25928;51.062;13.752;2022-12-24T11:47:14;12.90;1.00
816;DHT22;25928;51.062;13.752;2022-12-24T11:49:40;12.90;1.00
816;DHT22;25928;51.062;13.752;2022-12-24T11:55:14;13.00;1.00
816;DHT22;25928;51.062;13.752;2022-12-24T11:57:59;13.10;1.00
816;DHT22;25928;51.062;13.752;2022-12-24T12:00:26;13.00;1.00
816;DHT22;25928;51.062;13.752;2022-12-24T12:02:55;13.10;1.00
816;DHT22;25928;51.062;13.752;2022-12-24T12:05:25;13.10;1.00
816;DHT22;25928;51.062;13.752;2022-12-24T12:07:56;13.10;1.00
816;DHT22;25928;51.062;13.752;2022-12-24T12:10:25;13.20;1.00
816;DHT22;25928;51.062;13.752;2022-12-24T12:12:57;13.30;1.00
816;DHT22;25928;51.062;13.752;2022-12-24T12:15:32;13.20;1.00
816;DHT22;25928;51.062;13.752;2022-12-24T12:18:12;13.20;1.00
816;DHT22;25928;51.062;13.752;2022-12-24T12:20:45;13.20;1.00
816;DHT22;25928;51.062;13.752;2022-12-24T12:23:28;13.20;1.00
816;DHT22;25928;51.062;13.752;2022-12-24T12:34:21;12.90;1.00
816;DHT22;25928;51.062;13.752;2022-12-24T12:36:51;12.90;1.00
816;DHT22;25928;51.062;13.752;2022-12-24T12:39:18;12.90;1.00
816;DHT22;25928;51.062;13.752;2022-12-24T12:58:03;12.70;1.00
816;DHT22;25928;51.062;13.752;2022-12-24T13:00:35;12.90;1.00
816;DHT22;25928;51.062;13.752;2022-12-24T13:11:34;13.40;1.00
816;DHT22;25928;51.062;13.752;2022-12-24T13:22:15;13.30;1.00
816;DHT22;25928;51.062;13.752;2022-12-24T13:24:53;13.30;1.00
816;DHT22;25928;51.062;13.752;2022-12-24T13:27:27;13.30;1.00
816;DHT22;25928;51.062;13.752;2022-12-24T13:32:49;13.50;1.00
816;DHT22;25928;51.062;13.752;2022-12-24T13:37:46;13.70;1.00
816;DHT22;25928;51.062;13.752;2022-12-24T13:40:21;13.80;1.00
816;DHT22;25928;51.062;13.752;2022-12-24T13:45:42;13.80;1.00
816;DHT22;25928;51.062;13.752;2022-12-24T13:50:47;13.80;1.00
816;DHT22;25928;51.062;13.752;2022-12-24T13:53:32;13.90;1.00
816;DHT22;25928;51.062;13.752;2022-12-24T13:56:26;14.00;1.00
816;DHT22;25928;51.062;13.752;2022-12-24T13:59:32;13.90;1.00
816;DHT22;25928;51.062;13.752;2022-12-24T14:01:59;13.80;1.00
816;DHT22;25928;51.062;13.752;2022-12-24T14:04:31;13.70;1.00
816;DHT22;25928;51.062;13.752;2022-12-24T14:07:00;13.60;1.00
816;DHT22;25928;51.062;13.752;2022-12-24T14:09:28;13.50;1.00
816;DHT22;25928;51.062;13.752;2022-12-24T14:16:52;13.50;1.00
816;DHT22;25928;51.062;13.752;2022-12-24T14:19:25;13.50;1.00
816;DHT22;25928;51.062;13.752;2022-12-24T14:24:23;13.50;1.00
816;DHT22;25928;51.062;13.752;2022-12-24T14:26:56;13.60;1.00
816;DHT22;25928;51.062;13.752;2022-12-24T14:31:56;13.40;1.00
816;DHT22;25928;51.062;13.752;2022-12-24T14:34:23;13.40;1.00
816;DHT22;25928;51.062;13.752;2022-12-24T14:36:51;13.30;1.00
816;DHT22;25928;51.062;13.752;2022-12-24T14:39:40;13.30;1.00
816;DHT22;25928;51.062;13.752;2022-12-24T14:48:08;13.20;1.00
816;DHT22;25928;51.062;13.752;2022-12-24T14:50:43;13.10;1.00
816;DHT22;25928;51.062;13.752;2022-12-24T14:53:20;13.10;1.00
816;DHT22;25928;51.062;13.752;2022-12-24T14:55:48;13.00;1.00
816;DHT22;25928;51.062;13.752;2022-12-24T14:58:24;13.00;1.00
816;DHT22;25928;51.062;13.752;2022-12-24T15:00:52;12.90;1.00
816;DHT22;25928;51.062;13.752;2022-12-24T15:03:21;12.90;1.00
816;DHT22;25928;51.062;13.752;2022-12-24T15:05:56;12.90;1.00
816;DHT22;25928;51.062;13.752;2022-12-24T15:08:32;13.00;1.00
816;DHT22;25928;51.062;13.752;2022-12-24T15:11:02;13.00;1.00
816;DHT22;25928;51.062;13.752;2022-12-24T15:13:39;12.90;1.00
816;DHT22;25928;51.062;13.752;2022-12-24T15:16:12;13.10;1.00
816;DHT22;25928;51.062;13.752;2022-12-24T15:18:45;12.70;1.00
816;DHT22;25928;51.062;13.752;2022-12-24T15:21:20;12.60;1.00
816;DHT22;25928;51.062;13.752;2022-12-24T15:23:49;12.60;1.00
816;DHT22;25928;51.062;13.752;2022-12-24T15:26:30;12.50;1.00
816;DHT22;25928;51.062;13.752;2022-12-24T15:28:57;12.50;1.00
816;DHT22;25928;51.062;13.752;2022-12-24T15:31:25;12.50;1.00
816;DHT22;25928;51.062;13.752;2022-12-24T15:33:53;12.40;1.00
816;DHT22;25928;51.062;13.752;2022-12-24T15:36:31;12.50;1.00
816;DHT22;25928;51.062;13.752;2022-12-24T15:39:02;12.40;1.00
816;DHT22;25928;51.062;13.752;2022-12-24T15:41:40;12.30;1.00
816;DHT22;25928;51.062;13.752;2022-12-24T15:44:35;12.30;1.00
816;DHT22;25928;51.062;13.752;2022-12-24T15:47:04;12.30;1.00
816;DHT22;25928;51.062;13.752;2022-12-24T15:49:32;12.30;1.00
816;DHT22;25928;51.062;13.752;2022-12-24T15:52:07;12.10;1.00
816;DHT22;25928;51.062;13.752;2022-12-24T15:54:33;12.10;1.00
816;DHT22;25928;51.062;13.752;2022-12-24T15:57:14;12.10;1.00
816;DHT22;25928;51.062;13.752;2022-12-24T15:59:50;12.20;1.00
816;DHT22;25928;51.062;13.752;2022-12-24T16:02:38;12.20;1.00
816;DHT22;25928;51.062;13.752;2022-12-24T16:10:33;12.20;1.00
816;DHT22;25928;51.062;13.752;2022-12-24T16:12:59;12.10;1.00
816;DHT22;25928;51.062;13.752;2022-12-24T16:15:25;12.00;1.00
816;DHT22;25928;51.062;13.752;2022-12-24T16:17:50;11.90;1.00
816;DHT22;25928;51.062;13.752;2022-12-24T16:20:20;11.70;1.00
816;DHT22;25928;51.062;13.752;2022-12-24T16:22:48;11.60;1.00
816;DHT22;25928;51.062;13.752;2022-12-24T16:25:21;11.40;1.00
816;DHT22;25928;51.062;13.752;2022-12-24T16:27:48;11.20;1.00
816;DHT22;25928;51.062;13.752;2022-12-24T16:30:15;11.10;1.00
816;DHT22;25928;51.062;13.752;2022-12-24T16:32:40;11.00;1.00
816;DHT22;25928;51.062;13.752;2022-12-24T16:37:49;10.90;1.00
816;DHT22;25928;51.062;13.752;2022-12-24T16:40:15;10.80;1.00
816;DHT22;25928;51.062;13.752;2022-12-24T16:42:41;10.80;1.00
816;DHT22;25928;51.062;13.752;2022-12-24T16:45:27;10.70;1.00
816;DHT22;25928;51.062;13.752;2022-12-24T16:47:56;10.80;1.00
816;DHT22;25928;51.062;13.752;2022-12-24T16:50:22;10.80;1.00
816;DHT22;25928;51.062;13.752;2022-12-24T16:52:47;10.70;1.00
816;DHT22;25928;51.062;13.752;2022-12-24T16:55:13;10.80;1.00
816;DHT22;25928;51.062;13.752;2022-12-24T16:57:40;10.90;1.00
816;DHT22;25928;51.062;13.752;2022-12-24T17:00:15;11.00;1.00
816;DHT22;25928;51.062;13.752;2022-12-24T17:02:42;11.20;1.00
816;DHT22;25928;51.062;13.752;2022-12-24T17:05:09;11.20;1.00
816;DHT22;25928;51.062;13.752;2022-12-24T17:07:35;11.10;1.00
816;DHT22;25928;51.062;13.752;2022-12-24T17:10:01;11.10;1.00
816;DHT22;25928;51.062;13.752;2022-12-24T17:12:26;11.30;1.00
816;DHT22;25928;51.062;13.752;2022-12-24T17:14:52;11.20;1.00
816;DHT22;25928;51.062;13.752;2022-12-24T17:17:28;11.20;1.00
816;DHT22;25928;51.062;13.752;2022-12-24T17:19:55;11.20;1.00
816;DHT22;25928;51.062;13.752;2022-12-24T17:22:21;11.30;1.00
816;DHT22;25928;51.062;13.752;2022-12-24T17:24:47;11.20;1.00
816;DHT22;25928;51.062;13.752;2022-12-24T17:27:16;11.20;1.00
816;DHT22;25928;51.062;13.752;2022-12-24T17:29:42;11.10;1.00
816;DHT22;25928;51.062;13.752;2022-12-24T17:32:08;10.90;1.00
816;DHT22;25928;51.062;13.752;2022-12-24T17:34:33;10.90;1.00
816;DHT22;25928;51.062;13.752;2022-12-24T17:36:59;10.80;1.00
816;DHT22;25928;51.062;13.752;2022-12-24T17:39:25;10.70;1.00
816;DHT22;25928;51.062;13.752;2022-12-24T17:41:50;10.50;1.00
816;DHT22;25928;51.062;13.752;2022-12-24T17:44:16;10.40;1.00
816;DHT22;25928;51.062;13.752;2022-12-24T17:46:42;10.20;1.00
816;DHT22;25928;51.062;13.752;2022-12-24T17:49:08;10.20;1.00
816;DHT22;25928;51.062;13.752;2022-12-24T17:51:34;10.20;1.00
816;DHT22;25928;51.062;13.752;2022-12-24T17:54:00;10.30;1.00
816;DHT22;25928;51.062;13.752;2022-12-24T17:56:26;10.20;1.00
816;DHT22;25928;51.062;13.752;2022-12-24T17:58:52;10.10;1.00
816;DHT22;25928;51.062;13.752;2022-12-24T18:01:20;10.10;1.00
816;DHT22;25928;51.062;13.752;2022-12-24T18:03:48;10.00;1.00
816;DHT22;25928;51.062;13.752;2022-12-24T18:06:14;9.90;1.00
816;DHT22;25928;51.062;13.752;2022-12-24T18:08:42;9.90;1.00
816;DHT22;25928;51.062;13.752;2022-12-24T18:11:17;10.00;1.00
816;DHT22;25928;51.062;13.752;2022-12-24T18:13:43;9.90;1.00
816;DHT22;25928;51.062;13.752;2022-12-24T18:16:16;9.90;1.00
816;DHT22;25928;51.062;13.752;2022-12-24T18:18:43;9.80;1.00